sensor_id;sensor_type;location;lat;lon;timestamp;P1;durP1;ratioP1;P2;durP2;ratioP2
41923;SDS011;27613;48.116;11.656;2022-09-19T06:36:42;10.77;;;2.03;;
41923;SDS011;27613;48.116;11.656;2022-09-19T06:39:10;4.70;;;1.65;;
41923;SDS011;27613;48.116;11.656;2022-09-19T06:41:36;5.63;;;1.73;;
41923;SDS011;27613;48.116;11.656;2022-09-19T06:44:03;10.55;;;3.60;;
41923;SDS011;27613;48.116;11.656;2022-09-19T06:46:29;8.20;;;2.28;;
41923;SDS011;27613;48.116;11.656;2022-09-19T06:48:55;10.10;;;2.33;;
41923;SDS011;27613;48.116;11.656;2022-09-19T06:51:21;8.00;;;2.45;;
41923;SDS011;27613;48.116;11.656;2022-09-19T06:53:46;4.72;;;2.00;;
41923;SDS011;27613;48.116;11.656;2022-09-19T06:56:12;8.85;;;1.88;;
41923;SDS011;27613;48.116;11.656;2022-09-19T06:58:38;5.97;;;1.60;;
41923;SDS011;27613;48.116;11.656;2022-09-19T07:01:04;6.25;;;2.10;;
41923;SDS011;27613;48.116;11.656;2022-09-19T07:03:29;7.45;;;2.03;;
41923;SDS011;27613;48.116;11.656;2022-09-19T07:05:58;9.75;;;1.98;;
41923;SDS011;27613;48.116;11.656;2022-09-19T07:08:27;7.25;;;1.58;;
41923;SDS011;27613;48.116;11.656;2022-09-19T07:10:55;7.55;;;2.25;;
41923;SDS011;27613;48.116;11.656;2022-09-19T07:13:21;6.53;;;1.80;;
41923;SDS011;27613;48.116;11.656;2022-09-19T07:15:47;4.50;;;1.65;;
41923;SDS011;27613;48.116;11.656;2022-09-19T07:18:12;4.95;;;2.10;;
41923;SDS011;27613;48.116;11.656;2022-09-19T07:20:38;6.65;;;1.92;;
41923;SDS011;27613;48.116;11.656;2022-09-19T07:23:14;3.60;;;1.48;;
41923;SDS011;27613;48.116;11.656;2022-09-19T07:25:42;6.32;;;1.70;;
41923;SDS011;27613;48.116;11.656;2022-09-19T07:28:09;4.70;;;1.70;;
41923;SDS011;27613;48.116;11.656;2022-09-19T07:30:36;5.18;;;1.80;;
41923;SDS011;27613;48.116;11.656;2022-09-19T07:33:03;9.00;;;1.92;;
41923;SDS011;27613;48.116;11.656;2022-09-19T07:35:32;7.55;;;2.10;;
41923;SDS011;27613;48.116;11.656;2022-09-19T07:38:00;5.57;;;1.48;;
41923;SDS011;27613;48.116;11.656;2022-09-19T07:40:27;3.00;;;1.58;;
41923;SDS011;27613;48.116;11.656;2022-09-19T07:42:57;7.53;;;1.73;;
41923;SDS011;27613;48.116;11.656;2022-09-19T07:45:27;17.23;;;2.35;;
41923;SDS011;27613;48.116;11.656;2022-09-19T07:47:52;6.47;;;1.67;;
41923;SDS011;27613;48.116;11.656;2022-09-19T07:50:18;10.05;;;2.28;;
41923;SDS011;27613;48.116;11.656;2022-09-19T07:52:44;20.65;;;2.78;;
41923;SDS011;27613;48.116;11.656;2022-09-19T07:55:15;5.18;;;1.67;;
41923;SDS011;27613;48.116;11.656;2022-09-19T07:57:50;6.82;;;1.85;;
41923;SDS011;27613;48.116;11.656;2022-09-19T08:02:42;4.10;;;1.63;;
41923;SDS011;27613;48.116;11.656;2022-09-19T08:05:08;7.63;;;2.22;;
41923;SDS011;27613;48.116;11.656;2022-09-19T08:07:34;4.85;;;1.80;;
41923;SDS011;27613;48.116;11.656;2022-09-19T08:10:00;6.70;;;1.77;;
41923;SDS011;27613;48.116;11.656;2022-09-19T08:12:29;3.72;;;1.45;;
41923;SDS011;27613;48.116;11.656;2022-09-19T08:14:55;8.27;;;1.58;;
41923;SDS011;27613;48.116;11.656;2022-09-19T08:17:21;6.80;;;1.85;;
41923;SDS011;27613;48.116;11.656;2022-09-19T08:19:47;3.92;;;1.67;;
41923;SDS011;27613;48.116;11.656;2022-09-19T08:22:13;10.25;;;2.05;;
41923;SDS011;27613;48.116;11.656;2022-09-19T08:24:38;9.10;;;2.25;;
41923;SDS011;27613;48.116;11.656;2022-09-19T08:27:04;4.15;;;1.60;;
41923;SDS011;27613;48.116;11.656;2022-09-19T08:29:30;5.43;;;1.85;;
41923;SDS011;27613;48.116;11.656;2022-09-19T08:31:57;6.93;;;1.88;;
41923;SDS011;27613;48.116;11.656;2022-09-19T08:34:25;5.65;;;1.83;;
41923;SDS011;27613;48.116;11.656;2022-09-19T08:36:50;2.13;;;1.15;;
41923;SDS011;27613;48.116;11.656;2022-09-19T08:39:18;24.67;;;2.33;;
41923;SDS011;27613;48.116;11.656;2022-09-19T08:41:51;4.38;;;1.70;;
41923;SDS011;27613;48.116;11.656;2022-09-19T08:47:05;3.15;;;1.38;;
41923;SDS011;27613;48.116;11.656;2022-09-19T08:49:40;7.25;;;2.05;;
41923;SDS011;27613;48.116;11.656;2022-09-19T08:52:12;4.80;;;1.90;;
41923;SDS011;27613;48.116;11.656;2022-09-19T08:54:53;5.47;;;2.22;;
41923;SDS011;27613;48.116;11.656;2022-09-19T08:59:54;5.78;;;2.03;;
41923;SDS011;27613;48.116;11.656;2022-09-19T09:04:54;5.32;;;1.50;;
41923;SDS011;27613;48.116;11.656;2022-09-19T09:24:11;6.15;;;2.25;;
41923;SDS011;27613;48.116;11.656;2022-09-19T09:26:45;3.75;;;1.65;;
41923;SDS011;27613;48.116;11.656;2022-09-19T09:31:47;5.30;;;2.22;;
41923;SDS011;27613;48.116;11.656;2022-09-19T09:34:38;4.88;;;2.20;;
41923;SDS011;27613;48.116;11.656;2022-09-19T09:39:52;4.68;;;2.05;;
41923;SDS011;27613;48.116;11.656;2022-09-19T09:43:08;5.18;;;2.30;;
41923;SDS011;27613;48.116;11.656;2022-09-19T09:47:55;5.15;;;1.77;;
41923;SDS011;27613;48.116;11.656;2022-09-19T09:50:49;3.60;;;1.40;;
41923;SDS011;27613;48.116;11.656;2022-09-19T09:56:13;3.28;;;1.38;;
41923;SDS011;27613;48.116;11.656;2022-09-19T09:58:53;2.35;;;1.13;;
41923;SDS011;27613;48.116;11.656;2022-09-19T10:02:57;3.55;;;1.10;;
41923;SDS011;27613;48.116;11.656;2022-09-19T10:05:30;3.95;;;2.00;;
41923;SDS011;27613;48.116;11.656;2022-09-19T10:10:52;2.65;;;1.10;;
41923;SDS011;27613;48.116;11.656;2022-09-19T10:13:27;3.57;;;1.20;;
41923;SDS011;27613;48.116;11.656;2022-09-19T10:15:57;3.55;;;1.20;;
41923;SDS011;27613;48.116;11.656;2022-09-19T10:18:27;4.82;;;1.52;;
41923;SDS011;27613;48.116;11.656;2022-09-19T10:21:04;1.52;;;0.82;;
41923;SDS011;27613;48.116;11.656;2022-09-19T10:23:30;3.75;;;1.35;;
41923;SDS011;27613;48.116;11.656;2022-09-19T10:25:59;5.13;;;1.80;;
41923;SDS011;27613;48.116;11.656;2022-09-19T10:30:59;4.53;;;1.40;;
41923;SDS011;27613;48.116;11.656;2022-09-19T10:33:27;3.33;;;1.17;;
41923;SDS011;27613;48.116;11.656;2022-09-19T10:36:24;4.28;;;1.38;;
41923;SDS011;27613;48.116;11.656;2022-09-19T10:38:55;6.38;;;1.40;;
41923;SDS011;27613;48.116;11.656;2022-09-19T10:41:28;3.85;;;1.15;;
41923;SDS011;27613;48.116;11.656;2022-09-19T10:43:56;2.60;;;1.10;;
41923;SDS011;27613;48.116;11.656;2022-09-19T10:46:29;4.68;;;1.33;;
41923;SDS011;27613;48.116;11.656;2022-09-19T10:49:02;3.63;;;1.17;;
41923;SDS011;27613;48.116;11.656;2022-09-19T10:51:36;3.47;;;1.13;;
41923;SDS011;27613;48.116;11.656;2022-09-19T10:54:12;5.47;;;1.15;;
41923;SDS011;27613;48.116;11.656;2022-09-19T10:56:58;9.40;;;1.40;;
41923;SDS011;27613;48.116;11.656;2022-09-19T10:59:33;4.53;;;1.38;;
41923;SDS011;27613;48.116;11.656;2022-09-19T11:04:34;3.53;;;1.33;;
41923;SDS011;27613;48.116;11.656;2022-09-19T11:07:02;7.22;;;1.58;;
41923;SDS011;27613;48.116;11.656;2022-09-19T11:09:37;2.90;;;1.30;;
41923;SDS011;27613;48.116;11.656;2022-09-19T11:12:03;5.15;;;1.33;;
41923;SDS011;27613;48.116;11.656;2022-09-19T11:14:31;2.85;;;1.38;;
41923;SDS011;27613;48.116;11.656;2022-09-19T11:20:09;8.05;;;1.42;;
41923;SDS011;27613;48.116;11.656;2022-09-19T11:22:57;2.90;;;1.15;;
41923;SDS011;27613;48.116;11.656;2022-09-19T11:30:58;3.42;;;1.05;;
41923;SDS011;27613;48.116;11.656;2022-09-19T11:33:37;5.07;;;1.42;;
41923;SDS011;27613;48.116;11.656;2022-09-19T11:40:04;1.92;;;0.82;;
41923;SDS011;27613;48.116;11.656;2022-09-19T11:45:10;4.20;;;1.17;;
41923;SDS011;27613;48.116;11.656;2022-09-19T11:50:53;4.38;;;1.27;;
41923;SDS011;27613;48.116;11.656;2022-09-19T12:04:16;4.97;;;1.27;;
41923;SDS011;27613;48.116;11.656;2022-09-19T12:07:11;2.45;;;0.98;;
41923;SDS011;27613;48.116;11.656;2022-09-19T12:09:53;1.40;;;0.75;;
41923;SDS011;27613;48.116;11.656;2022-09-19T12:12:29;2.03;;;0.90;;
41923;SDS011;27613;48.116;11.656;2022-09-19T12:15:16;11.00;;;1.48;;
41923;SDS011;27613;48.116;11.656;2022-09-19T12:20:30;2.83;;;0.90;;
41923;SDS011;27613;48.116;11.656;2022-09-19T12:23:02;1.52;;;0.82;;
41923;SDS011;27613;48.116;11.656;2022-09-19T12:25:56;3.13;;;0.98;;
41923;SDS011;27613;48.116;11.656;2022-09-19T12:28:25;2.85;;;1.10;;
41923;SDS011;27613;48.116;11.656;2022-09-19T12:30:57;2.40;;;1.13;;
41923;SDS011;27613;48.116;11.656;2022-09-19T12:36:06;1.98;;;1.17;;
41923;SDS011;27613;48.116;11.656;2022-09-19T12:39:06;4.80;;;1.02;;
41923;SDS011;27613;48.116;11.656;2022-09-19T12:41:40;5.15;;;1.20;;
41923;SDS011;27613;48.116;11.656;2022-09-19T12:52:25;2.80;;;1.02;;
41923;SDS011;27613;48.116;11.656;2022-09-19T12:55:02;2.00;;;1.17;;
41923;SDS011;27613;48.116;11.656;2022-09-19T13:00:15;2.72;;;0.85;;
41923;SDS011;27613;48.116;11.656;2022-09-19T13:06:03;2.25;;;1.00;;
41923;SDS011;27613;48.116;11.656;2022-09-19T13:09:04;1.08;;;0.70;;
41923;SDS011;27613;48.116;11.656;2022-09-19T13:11:43;3.40;;;1.20;;
41923;SDS011;27613;48.116;11.656;2022-09-19T13:14:20;2.35;;;0.85;;
41923;SDS011;27613;48.116;11.656;2022-09-19T13:17:09;3.63;;;1.20;;
41923;SDS011;27613;48.116;11.656;2022-09-19T13:19:55;1.42;;;0.70;;
41923;SDS011;27613;48.116;11.656;2022-09-19T13:22:45;1.50;;;0.65;;
41923;SDS011;27613;48.116;11.656;2022-09-19T13:25:32;1.75;;;0.63;;
41923;SDS011;27613;48.116;11.656;2022-09-19T13:30:58;2.83;;;1.02;;
41923;SDS011;27613;48.116;11.656;2022-09-19T13:33:35;3.53;;;0.90;;
41923;SDS011;27613;48.116;11.656;2022-09-19T13:36:13;3.05;;;1.60;;
41923;SDS011;27613;48.116;11.656;2022-09-19T13:38:49;2.97;;;1.17;;
41923;SDS011;27613;48.116;11.656;2022-09-19T13:41:20;3.13;;;0.95;;
41923;SDS011;27613;48.116;11.656;2022-09-19T13:49:28;2.30;;;0.85;;
41923;SDS011;27613;48.116;11.656;2022-09-19T13:52:02;5.47;;;1.33;;
41923;SDS011;27613;48.116;11.656;2022-09-19T13:54:37;2.53;;;1.08;;
41923;SDS011;27613;48.116;11.656;2022-09-19T13:57:34;1.73;;;0.88;;
41923;SDS011;27613;48.116;11.656;2022-09-19T14:00:10;1.08;;;0.63;;
41923;SDS011;27613;48.116;11.656;2022-09-19T14:03:50;3.97;;;1.08;;
41923;SDS011;27613;48.116;11.656;2022-09-19T14:06:13;3.63;;;1.42;;
41923;SDS011;27613;48.116;11.656;2022-09-19T14:11:55;3.70;;;1.45;;
41923;SDS011;27613;48.116;11.656;2022-09-19T14:14:56;3.10;;;1.50;;
41923;SDS011;27613;48.116;11.656;2022-09-19T14:25:23;1.60;;;0.75;;
41923;SDS011;27613;48.116;11.656;2022-09-19T14:36:00;2.88;;;1.23;;
41923;SDS011;27613;48.116;11.656;2022-09-19T14:38:53;4.75;;;1.70;;
41923;SDS011;27613;48.116;11.656;2022-09-19T14:47:09;1.98;;;0.93;;
41923;SDS011;27613;48.116;11.656;2022-09-19T14:49:45;1.90;;;1.00;;
41923;SDS011;27613;48.116;11.656;2022-09-19T14:52:20;3.33;;;1.35;;
41923;SDS011;27613;48.116;11.656;2022-09-19T14:54:51;2.50;;;0.82;;
41923;SDS011;27613;48.116;11.656;2022-09-19T14:57:44;2.78;;;1.30;;
41923;SDS011;27613;48.116;11.656;2022-09-19T15:02:55;1.10;;;0.63;;
41923;SDS011;27613;48.116;11.656;2022-09-19T15:05:25;2.28;;;0.90;;
41923;SDS011;27613;48.116;11.656;2022-09-19T15:07:54;1.30;;;0.70;;
41923;SDS011;27613;48.116;11.656;2022-09-19T15:13:13;0.60;;;0.50;;
41923;SDS011;27613;48.116;11.656;2022-09-19T15:15:47;2.45;;;0.70;;
41923;SDS011;27613;48.116;11.656;2022-09-19T15:18:25;1.58;;;0.75;;
41923;SDS011;27613;48.116;11.656;2022-09-19T15:21:01;2.72;;;0.80;;
41923;SDS011;27613;48.116;11.656;2022-09-19T15:23:30;2.25;;;0.88;;
41923;SDS011;27613;48.116;11.656;2022-09-19T15:25:59;1.80;;;0.93;;
41923;SDS011;27613;48.116;11.656;2022-09-19T15:28:30;2.03;;;0.75;;
41923;SDS011;27613;48.116;11.656;2022-09-19T15:31:17;1.55;;;0.77;;
41923;SDS011;27613;48.116;11.656;2022-09-19T15:33:46;1.95;;;0.70;;
41923;SDS011;27613;48.116;11.656;2022-09-19T15:36:16;0.88;;;0.38;;
41923;SDS011;27613;48.116;11.656;2022-09-19T15:38:47;0.77;;;0.70;;
41923;SDS011;27613;48.116;11.656;2022-09-19T15:41:19;1.30;;;0.75;;
41923;SDS011;27613;48.116;11.656;2022-09-19T15:43:48;1.45;;;0.70;;
41923;SDS011;27613;48.116;11.656;2022-09-19T15:48:49;2.85;;;1.17;;
41923;SDS011;27613;48.116;11.656;2022-09-19T15:51:27;2.33;;;1.30;;
41923;SDS011;27613;48.116;11.656;2022-09-19T15:54:00;1.23;;;0.60;;
41923;SDS011;27613;48.116;11.656;2022-09-19T15:56:27;2.03;;;1.15;;
41923;SDS011;27613;48.116;11.656;2022-09-19T15:58:53;2.70;;;0.98;;
41923;SDS011;27613;48.116;11.656;2022-09-19T16:01:31;9.35;;;1.50;;
41923;SDS011;27613;48.116;11.656;2022-09-19T16:04:02;2.70;;;1.40;;
41923;SDS011;27613;48.116;11.656;2022-09-19T16:09:35;1.60;;;1.02;;
41923;SDS011;27613;48.116;11.656;2022-09-19T16:15:02;1.55;;;0.90;;
41923;SDS011;27613;48.116;11.656;2022-09-19T16:23:01;2.80;;;1.10;;
41923;SDS011;27613;48.116;11.656;2022-09-19T16:28:00;2.58;;;1.20;;
41923;SDS011;27613;48.116;11.656;2022-09-19T16:30:33;4.18;;;1.10;;
41923;SDS011;27613;48.116;11.656;2022-09-19T16:33:12;3.30;;;1.20;;
41923;SDS011;27613;48.116;11.656;2022-09-19T16:35:38;2.45;;;1.30;;
41923;SDS011;27613;48.116;11.656;2022-09-19T16:38:06;2.92;;;1.40;;
41923;SDS011;27613;48.116;11.656;2022-09-19T16:40:32;2.83;;;1.23;;
41923;SDS011;27613;48.116;11.656;2022-09-19T16:42:58;1.75;;;1.02;;
41923;SDS011;27613;48.116;11.656;2022-09-19T16:45:36;2.20;;;1.00;;
41923;SDS011;27613;48.116;11.656;2022-09-19T16:48:03;2.17;;;0.90;;
41923;SDS011;27613;48.116;11.656;2022-09-19T16:50:29;2.00;;;1.05;;
41923;SDS011;27613;48.116;11.656;2022-09-19T16:53:00;1.60;;;1.00;;
41923;SDS011;27613;48.116;11.656;2022-09-19T16:55:39;2.15;;;0.93;;
41923;SDS011;27613;48.116;11.656;2022-09-19T16:58:07;2.80;;;1.00;;
41923;SDS011;27613;48.116;11.656;2022-09-19T17:00:36;2.47;;;1.00;;
41923;SDS011;27613;48.116;11.656;2022-09-19T17:03:02;4.88;;;2.47;;
41923;SDS011;27613;48.116;11.656;2022-09-19T17:05:29;7.57;;;6.30;;
41923;SDS011;27613;48.116;11.656;2022-09-19T17:07:58;5.47;;;2.30;;
41923;SDS011;27613;48.116;11.656;2022-09-19T17:10:25;3.78;;;2.22;;
41923;SDS011;27613;48.116;11.656;2022-09-19T17:12:52;1.98;;;1.23;;
41923;SDS011;27613;48.116;11.656;2022-09-19T17:18:02;3.45;;;1.80;;
41923;SDS011;27613;48.116;11.656;2022-09-19T17:20:28;3.15;;;1.90;;
41923;SDS011;27613;48.116;11.656;2022-09-19T17:22:54;3.00;;;1.65;;
41923;SDS011;27613;48.116;11.656;2022-09-19T17:25:30;3.22;;;1.60;;
41923;SDS011;27613;48.116;11.656;2022-09-19T17:28:06;3.45;;;2.20;;
41923;SDS011;27613;48.116;11.656;2022-09-19T17:30:32;2.42;;;1.40;;
41923;SDS011;27613;48.116;11.656;2022-09-19T17:32:58;5.22;;;1.88;;
41923;SDS011;27613;48.116;11.656;2022-09-19T17:35:23;3.00;;;1.70;;
41923;SDS011;27613;48.116;11.656;2022-09-19T17:37:49;4.47;;;1.58;;
41923;SDS011;27613;48.116;11.656;2022-09-19T17:40:14;4.85;;;1.70;;
41923;SDS011;27613;48.116;11.656;2022-09-19T17:42:41;3.53;;;1.42;;
41923;SDS011;27613;48.116;11.656;2022-09-19T17:45:07;2.63;;;1.40;;
41923;SDS011;27613;48.116;11.656;2022-09-19T17:47:34;3.35;;;1.33;;
41923;SDS011;27613;48.116;11.656;2022-09-19T17:50:00;1.80;;;1.10;;
41923;SDS011;27613;48.116;11.656;2022-09-19T17:52:26;2.75;;;1.27;;
41923;SDS011;27613;48.116;11.656;2022-09-19T17:54:52;5.05;;;1.42;;
41923;SDS011;27613;48.116;11.656;2022-09-19T17:57:18;2.58;;;1.38;;
41923;SDS011;27613;48.116;11.656;2022-09-19T17:59:44;2.80;;;1.42;;
41923;SDS011;27613;48.116;11.656;2022-09-19T18:02:10;2.17;;;1.40;;
41923;SDS011;27613;48.116;11.656;2022-09-19T18:04:54;4.63;;;1.95;;
41923;SDS011;27613;48.116;11.656;2022-09-19T18:07:21;3.08;;;1.63;;
41923;SDS011;27613;48.116;11.656;2022-09-19T18:09:46;3.60;;;1.80;;
41923;SDS011;27613;48.116;11.656;2022-09-19T18:12:13;5.93;;;2.30;;
41923;SDS011;27613;48.116;11.656;2022-09-19T18:14:41;4.70;;;1.90;;
41923;SDS011;27613;48.116;11.656;2022-09-19T18:17:09;4.05;;;1.73;;
41923;SDS011;27613;48.116;11.656;2022-09-19T18:19:34;4.00;;;1.70;;
41923;SDS011;27613;48.116;11.656;2022-09-19T18:22:00;3.67;;;1.70;;
41923;SDS011;27613;48.116;11.656;2022-09-19T18:24:28;3.75;;;1.40;;
41923;SDS011;27613;48.116;11.656;2022-09-19T18:26:54;10.80;;;2.50;;
41923;SDS011;27613;48.116;11.656;2022-09-19T18:29:20;4.70;;;2.15;;
41923;SDS011;27613;48.116;11.656;2022-09-19T18:31:46;3.85;;;2.15;;
41923;SDS011;27613;48.116;11.656;2022-09-19T18:34:12;3.55;;;1.85;;
41923;SDS011;27613;48.116;11.656;2022-09-19T18:36:38;5.43;;;2.47;;
41923;SDS011;27613;48.116;11.656;2022-09-19T18:39:05;5.13;;;1.92;;
41923;SDS011;27613;48.116;11.656;2022-09-19T18:41:31;4.25;;;2.10;;
41923;SDS011;27613;48.116;11.656;2022-09-19T18:43:56;6.63;;;2.13;;
41923;SDS011;27613;48.116;11.656;2022-09-19T18:46:23;6.60;;;2.50;;
41923;SDS011;27613;48.116;11.656;2022-09-19T18:48:50;10.13;;;1.98;;
41923;SDS011;27613;48.116;11.656;2022-09-19T18:51:18;6.75;;;2.70;;
41923;SDS011;27613;48.116;11.656;2022-09-19T18:53:47;4.95;;;2.33;;
41923;SDS011;27613;48.116;11.656;2022-09-19T18:56:14;6.43;;;2.60;;
41923;SDS011;27613;48.116;11.656;2022-09-19T18:58:40;3.25;;;1.75;;
41923;SDS011;27613;48.116;11.656;2022-09-19T19:01:07;3.88;;;2.20;;
41923;SDS011;27613;48.116;11.656;2022-09-19T19:03:35;3.03;;;2.08;;
41923;SDS011;27613;48.116;11.656;2022-09-19T19:06:04;5.10;;;2.38;;
41923;SDS011;27613;48.116;11.656;2022-09-19T19:08:32;10.00;;;4.30;;
41923;SDS011;27613;48.116;11.656;2022-09-19T19:11:12;4.40;;;2.72;;
41923;SDS011;27613;48.116;11.656;2022-09-19T19:13:39;4.75;;;2.80;;
41923;SDS011;27613;48.116;11.656;2022-09-19T19:16:09;3.70;;;2.50;;
41923;SDS011;27613;48.116;11.656;2022-09-19T19:18:43;5.57;;;2.30;;
41923;SDS011;27613;48.116;11.656;2022-09-19T19:21:17;2.80;;;2.00;;
41923;SDS011;27613;48.116;11.656;2022-09-19T19:23:45;3.88;;;1.88;;
41923;SDS011;27613;48.116;11.656;2022-09-19T19:26:11;4.05;;;2.20;;
41923;SDS011;27613;48.116;11.656;2022-09-19T19:28:37;6.22;;;2.20;;
41923;SDS011;27613;48.116;11.656;2022-09-19T19:31:03;3.55;;;2.05;;
41923;SDS011;27613;48.116;11.656;2022-09-19T19:33:30;5.93;;;2.33;;
41923;SDS011;27613;48.116;11.656;2022-09-19T19:38:37;4.40;;;2.65;;
41923;SDS011;27613;48.116;11.656;2022-09-19T19:41:05;5.70;;;2.80;;
41923;SDS011;27613;48.116;11.656;2022-09-19T19:43:33;3.92;;;2.20;;
41923;SDS011;27613;48.116;11.656;2022-09-19T19:45:59;3.58;;;2.25;;
41923;SDS011;27613;48.116;11.656;2022-09-19T19:48:32;3.55;;;2.20;;
41923;SDS011;27613;48.116;11.656;2022-09-19T19:51:01;7.50;;;2.58;;
41923;SDS011;27613;48.116;11.656;2022-09-19T19:53:29;3.50;;;2.42;;
41923;SDS011;27613;48.116;11.656;2022-09-19T19:56:00;5.68;;;2.42;;
41923;SDS011;27613;48.116;11.656;2022-09-19T19:58:28;5.20;;;2.10;;
41923;SDS011;27613;48.116;11.656;2022-09-19T20:00:58;5.63;;;1.88;;
41923;SDS011;27613;48.116;11.656;2022-09-19T20:03:27;3.00;;;1.85;;
41923;SDS011;27613;48.116;11.656;2022-09-19T20:05:56;2.45;;;1.60;;
41923;SDS011;27613;48.116;11.656;2022-09-19T20:08:23;2.70;;;1.73;;
41923;SDS011;27613;48.116;11.656;2022-09-19T20:10:56;4.07;;;1.70;;
41923;SDS011;27613;48.116;11.656;2022-09-19T20:13:24;3.17;;;1.67;;
41923;SDS011;27613;48.116;11.656;2022-09-19T20:16:00;5.07;;;1.42;;
41923;SDS011;27613;48.116;11.656;2022-09-19T20:18:32;4.70;;;1.95;;
41923;SDS011;27613;48.116;11.656;2022-09-19T20:21:02;2.53;;;1.60;;
41923;SDS011;27613;48.116;11.656;2022-09-19T20:23:29;4.07;;;2.03;;
41923;SDS011;27613;48.116;11.656;2022-09-19T20:25:56;2.92;;;1.70;;
41923;SDS011;27613;48.116;11.656;2022-09-19T20:28:21;2.22;;;1.52;;
41923;SDS011;27613;48.116;11.656;2022-09-19T20:30:47;4.82;;;1.95;;
41923;SDS011;27613;48.116;11.656;2022-09-19T20:33:15;3.58;;;1.90;;
41923;SDS011;27613;48.116;11.656;2022-09-19T20:35:43;3.40;;;2.10;;
41923;SDS011;27613;48.116;11.656;2022-09-19T20:38:12;2.50;;;1.42;;
41923;SDS011;27613;48.116;11.656;2022-09-19T20:40:39;3.35;;;1.60;;
41923;SDS011;27613;48.116;11.656;2022-09-19T20:43:05;3.55;;;1.95;;
41923;SDS011;27613;48.116;11.656;2022-09-19T20:45:31;6.78;;;1.65;;
41923;SDS011;27613;48.116;11.656;2022-09-19T20:47:57;2.58;;;1.65;;
41923;SDS011;27613;48.116;11.656;2022-09-19T20:50:25;2.08;;;1.42;;
41923;SDS011;27613;48.116;11.656;2022-09-19T20:52:52;2.88;;;1.63;;
41923;SDS011;27613;48.116;11.656;2022-09-19T20:55:17;4.93;;;2.35;;
41923;SDS011;27613;48.116;11.656;2022-09-19T20:57:43;4.28;;;1.70;;
41923;SDS011;27613;48.116;11.656;2022-09-19T21:00:09;2.88;;;1.48;;
41923;SDS011;27613;48.116;11.656;2022-09-19T21:02:34;2.60;;;1.50;;
41923;SDS011;27613;48.116;11.656;2022-09-19T21:05:00;2.90;;;1.75;;
41923;SDS011;27613;48.116;11.656;2022-09-19T21:07:26;3.05;;;1.77;;
41923;SDS011;27613;48.116;11.656;2022-09-19T21:09:51;2.97;;;1.73;;
41923;SDS011;27613;48.116;11.656;2022-09-19T21:12:17;2.00;;;1.38;;
41923;SDS011;27613;48.116;11.656;2022-09-19T21:14:43;2.90;;;1.45;;
41923;SDS011;27613;48.116;11.656;2022-09-19T21:17:09;2.53;;;1.48;;
41923;SDS011;27613;48.116;11.656;2022-09-19T21:19:35;2.83;;;1.30;;
41923;SDS011;27613;48.116;11.656;2022-09-19T21:22:00;2.40;;;1.27;;
41923;SDS011;27613;48.116;11.656;2022-09-19T21:24:26;2.90;;;1.17;;
41923;SDS011;27613;48.116;11.656;2022-09-19T21:26:52;1.98;;;1.20;;
41923;SDS011;27613;48.116;11.656;2022-09-19T21:29:17;2.55;;;1.10;;
41923;SDS011;27613;48.116;11.656;2022-09-19T21:31:43;2.38;;;1.17;;
41923;SDS011;27613;48.116;11.656;2022-09-19T21:34:11;1.90;;;1.02;;
41923;SDS011;27613;48.116;11.656;2022-09-19T21:36:38;2.88;;;1.05;;
41923;SDS011;27613;48.116;11.656;2022-09-19T21:39:04;2.88;;;1.10;;
41923;SDS011;27613;48.116;11.656;2022-09-19T21:41:31;2.53;;;1.20;;
41923;SDS011;27613;48.116;11.656;2022-09-19T21:43:59;1.88;;;1.23;;
41923;SDS011;27613;48.116;11.656;2022-09-19T21:46:26;2.60;;;1.40;;
41923;SDS011;27613;48.116;11.656;2022-09-19T21:48:54;2.65;;;1.20;;
41923;SDS011;27613;48.116;11.656;2022-09-19T21:51:20;4.93;;;2.03;;
41923;SDS011;27613;48.116;11.656;2022-09-19T21:53:49;2.75;;;1.40;;
41923;SDS011;27613;48.116;11.656;2022-09-19T21:56:16;2.28;;;1.27;;
41923;SDS011;27613;48.116;11.656;2022-09-19T21:58:42;2.72;;;1.38;;
41923;SDS011;27613;48.116;11.656;2022-09-19T22:01:15;2.17;;;1.30;;
41923;SDS011;27613;48.116;11.656;2022-09-19T22:03:42;2.03;;;1.40;;
41923;SDS011;27613;48.116;11.656;2022-09-19T22:06:08;2.58;;;1.40;;
41923;SDS011;27613;48.116;11.656;2022-09-19T22:08:34;1.50;;;1.20;;
41923;SDS011;27613;48.116;11.656;2022-09-19T22:11:01;1.77;;;1.23;;
41923;SDS011;27613;48.116;11.656;2022-09-19T22:13:31;2.47;;;1.20;;
41923;SDS011;27613;48.116;11.656;2022-09-19T22:15:58;1.27;;;1.08;;
41923;SDS011;27613;48.116;11.656;2022-09-19T22:18:26;2.00;;;1.23;;
41923;SDS011;27613;48.116;11.656;2022-09-19T22:20:53;1.45;;;1.10;;
41923;SDS011;27613;48.116;11.656;2022-09-19T22:23:19;2.15;;;1.20;;
41923;SDS011;27613;48.116;11.656;2022-09-19T22:25:45;2.13;;;1.27;;
41923;SDS011;27613;48.116;11.656;2022-09-19T22:28:12;2.95;;;1.35;;
41923;SDS011;27613;48.116;11.656;2022-09-19T22:30:39;3.80;;;1.45;;
41923;SDS011;27613;48.116;11.656;2022-09-19T22:33:04;3.47;;;1.58;;
41923;SDS011;27613;48.116;11.656;2022-09-19T22:35:30;2.42;;;1.55;;
41923;SDS011;27613;48.116;11.656;2022-09-19T22:37:56;2.85;;;1.23;;
41923;SDS011;27613;48.116;11.656;2022-09-19T22:40:22;3.33;;;1.35;;
41923;SDS011;27613;48.116;11.656;2022-09-19T22:42:49;2.08;;;1.05;;
41923;SDS011;27613;48.116;11.656;2022-09-19T22:45:15;2.25;;;1.08;;
41923;SDS011;27613;48.116;11.656;2022-09-19T22:47:40;1.98;;;0.90;;
41923;SDS011;27613;48.116;11.656;2022-09-19T22:50:07;2.25;;;1.10;;
41923;SDS011;27613;48.116;11.656;2022-09-19T22:52:33;2.22;;;1.10;;
41923;SDS011;27613;48.116;11.656;2022-09-19T22:54:59;2.17;;;1.27;;
41923;SDS011;27613;48.116;11.656;2022-09-19T22:57:25;2.25;;;1.00;;
41923;SDS011;27613;48.116;11.656;2022-09-19T22:59:50;2.00;;;1.13;;
41923;SDS011;27613;48.116;11.656;2022-09-19T23:02:17;5.80;;;1.40;;
41923;SDS011;27613;48.116;11.656;2022-09-19T23:04:43;1.40;;;1.00;;
41923;SDS011;27613;48.116;11.656;2022-09-19T23:07:09;2.78;;;1.20;;
41923;SDS011;27613;48.116;11.656;2022-09-19T23:09:34;1.92;;;1.20;;
41923;SDS011;27613;48.116;11.656;2022-09-19T23:12:00;3.10;;;1.15;;
41923;SDS011;27613;48.116;11.656;2022-09-19T23:14:26;1.98;;;0.95;;
41923;SDS011;27613;48.116;11.656;2022-09-19T23:16:51;4.10;;;1.02;;
41923;SDS011;27613;48.116;11.656;2022-09-19T23:19:18;3.50;;;1.10;;
41923;SDS011;27613;48.116;11.656;2022-09-19T23:21:46;2.40;;;1.20;;
41923;SDS011;27613;48.116;11.656;2022-09-19T23:24:15;3.65;;;0.95;;
41923;SDS011;27613;48.116;11.656;2022-09-19T23:26:51;6.82;;;1.70;;
41923;SDS011;27613;48.116;11.656;2022-09-19T23:29:18;2.47;;;1.00;;
41923;SDS011;27613;48.116;11.656;2022-09-19T23:31:44;1.63;;;0.95;;
41923;SDS011;27613;48.116;11.656;2022-09-19T23:34:11;2.17;;;1.10;;
41923;SDS011;27613;48.116;11.656;2022-09-19T23:36:38;1.40;;;1.20;;
41923;SDS011;27613;48.116;11.656;2022-09-19T23:39:04;2.13;;;1.10;;
41923;SDS011;27613;48.116;11.656;2022-09-19T23:41:30;2.97;;;1.20;;
41923;SDS011;27613;48.116;11.656;2022-09-19T23:43:56;1.00;;;0.80;;
41923;SDS011;27613;48.116;11.656;2022-09-19T23:46:26;2.28;;;1.10;;
41923;SDS011;27613;48.116;11.656;2022-09-19T23:48:53;1.70;;;0.88;;
41923;SDS011;27613;48.116;11.656;2022-09-19T23:51:20;0.98;;;0.77;;
41923;SDS011;27613;48.116;11.656;2022-09-19T23:53:47;5.55;;;1.30;;
41923;SDS011;27613;48.116;11.656;2022-09-19T23:56:17;1.77;;;0.80;;
41923;SDS011;27613;48.116;11.656;2022-09-19T23:58:43;2.22;;;1.13;;
